createdAt,value
2023-02-22T00:01:36.349Z,173.10
2023-02-22T00:04:06.692Z,180.73
2023-02-22T00:06:34.247Z,169.88
2023-02-22T00:09:02.672Z,173.30
2023-02-22T00:11:31.697Z,187.32
2023-02-22T00:13:59.108Z,173.48
2023-02-22T00:16:27.094Z,160.27
2023-02-22T00:18:54.587Z,171.38
2023-02-22T00:21:22.431Z,169.40
2023-02-22T00:23:50.349Z,185.05
2023-02-22T00:26:20.901Z,165.75
2023-02-22T00:28:52.528Z,169.48
2023-02-22T00:31:20.758Z,175.73
2023-02-22T00:33:50.064Z,176.25
2023-02-22T00:36:18.102Z,172.70
2023-02-22T00:38:45.493Z,169.13
2023-02-22T00:41:12.850Z,171.70
2023-02-22T00:43:40.153Z,172.20
2023-02-22T00:46:07.509Z,175.65
2023-02-22T00:48:34.829Z,170.52
2023-02-22T00:51:02.204Z,178.27
2023-02-22T00:53:30.453Z,171.55
2023-02-22T00:55:57.862Z,173.18
2023-02-22T00:58:26.847Z,179.77
2023-02-22T01:00:54.288Z,177.05
2023-02-22T01:03:21.812Z,171.52
2023-02-22T01:05:50.670Z,163.38
2023-02-22T01:08:18.169Z,174.38
2023-02-22T01:10:46.644Z,187.10
2023-02-22T01:13:14.231Z,170.02
2023-02-22T01:15:44.835Z,171.68
2023-02-22T01:18:12.956Z,160.48
2023-02-22T01:20:40.289Z,163.05
2023-02-22T01:23:10.647Z,156.95
2023-02-22T01:25:38.189Z,155.95
2023-02-22T01:28:08.838Z,169.15
2023-02-22T01:30:37.161Z,165.57
2023-02-22T01:33:06.829Z,174.38
2023-02-22T01:35:38.504Z,169.50
2023-02-22T01:38:08.538Z,176.20
2023-02-22T01:40:41.984Z,171.98
2023-02-22T01:43:29.904Z,165.13
2023-02-22T01:46:01.701Z,158.80
2023-02-22T01:51:14.715Z,163.27
2023-02-22T01:53:49.586Z,161.77
2023-02-22T01:56:19.006Z,153.27
2023-02-22T01:58:50.814Z,162.68
2023-02-22T02:01:21.138Z,163.50
2023-02-22T02:03:49.481Z,179.95
2023-02-22T02:06:19.005Z,165.93
2023-02-22T02:09:10.790Z,158.70
2023-02-22T02:11:40.636Z,173.93
2023-02-22T02:14:09.867Z,166.43
2023-02-22T02:16:52.001Z,158.45
2023-02-22T02:19:49.428Z,163.00
2023-02-22T02:22:16.713Z,172.07
2023-02-22T02:25:05.721Z,157.25
2023-02-22T02:27:53.282Z,172.48
2023-02-22T02:30:51.063Z,179.48
2023-02-22T02:33:33.628Z,162.57
2023-02-22T02:36:19.974Z,178.70
2023-02-22T02:38:54.768Z,168.32
2023-02-22T02:41:29.875Z,167.48
2023-02-22T02:44:09.391Z,164.07
2023-02-22T02:46:56.429Z,170.68
2023-02-22T02:49:52.885Z,178.80
2023-02-22T02:52:23.327Z,179.77
2023-02-22T02:54:51.596Z,166.30
2023-02-22T02:57:18.943Z,153.82
2023-02-22T02:59:46.504Z,175.32
2023-02-22T03:02:55.219Z,176.98
2023-02-22T03:05:52.500Z,170.98
2023-02-22T03:08:58.305Z,161.60
2023-02-22T03:11:31.444Z,159.75
2023-02-22T03:14:07.617Z,178.18
2023-02-22T03:16:52.329Z,190.52
2023-02-22T03:19:37.932Z,163.55
2023-02-22T03:22:20.597Z,170.73
2023-02-22T03:25:14.148Z,174.93
2023-02-22T03:27:47.473Z,171.10
2023-02-22T03:30:40.694Z,166.88
2023-02-22T03:33:20.446Z,174.32
2023-02-22T03:35:57.017Z,171.20
2023-02-22T03:38:28.031Z,194.63
2023-02-22T03:41:00.914Z,178.48
2023-02-22T03:43:34.214Z,184.65
2023-02-22T03:46:04.777Z,163.95
2023-02-22T03:48:54.371Z,178.35
2023-02-22T03:51:22.823Z,173.32
2023-02-22T03:53:54.854Z,177.75
2023-02-22T03:56:47.117Z,181.35
2023-02-22T03:59:14.975Z,188.80
2023-02-22T04:01:42.436Z,167.73
2023-02-22T04:04:10.493Z,190.88
2023-02-22T04:06:39.467Z,183.32
2023-02-22T04:09:08.626Z,177.88
2023-02-22T04:11:36.143Z,174.52
2023-02-22T04:14:04.024Z,168.45
2023-02-22T04:16:31.606Z,179.80
2023-02-22T04:18:58.939Z,170.70
2023-02-22T04:21:26.319Z,172.85
2023-02-22T04:23:54.112Z,175.32
2023-02-22T04:26:21.502Z,182.45
2023-02-22T04:28:55.538Z,188.27
2023-02-22T04:31:24.916Z,188.90
2023-02-22T04:33:54.283Z,175.35
2023-02-22T04:36:27.160Z,170.23
2023-02-22T04:38:55.156Z,169.55
2023-02-22T04:41:25.055Z,183.07
2023-02-22T04:43:53.112Z,178.63
2023-02-22T04:46:25.296Z,191.02
2023-02-22T04:48:54.329Z,171.95
2023-02-22T04:51:25.101Z,186.38
2023-02-22T04:54:01.571Z,193.45
2023-02-22T04:56:30.308Z,188.25
2023-02-22T04:58:57.860Z,184.43
2023-02-22T05:01:25.159Z,174.68
2023-02-22T05:03:52.471Z,169.77
2023-02-22T05:06:19.711Z,186.30
2023-02-22T05:08:47.105Z,174.05
2023-02-22T05:11:14.912Z,191.55
2023-02-22T05:13:42.453Z,175.90
2023-02-22T05:16:09.871Z,183.60
2023-02-22T05:18:37.180Z,188.93
2023-02-22T05:21:04.593Z,195.00
2023-02-22T05:23:32.059Z,178.05
2023-02-22T05:25:59.459Z,194.23
2023-02-22T05:28:27.622Z,182.30
2023-02-22T05:30:55.172Z,198.73
2023-02-22T05:33:22.562Z,176.63
2023-02-22T05:35:50.425Z,174.32
2023-02-22T05:38:17.772Z,176.65
2023-02-22T05:40:45.092Z,178.90
2023-02-22T05:43:12.464Z,181.77
2023-02-22T05:45:39.795Z,185.90
2023-02-22T05:48:07.628Z,167.25
2023-02-22T05:50:35.035Z,177.52
2023-02-22T05:53:02.428Z,172.95
2023-02-22T05:55:29.801Z,189.40
2023-02-22T05:57:57.144Z,184.55
2023-02-22T06:00:28.251Z,187.55
2023-02-22T06:02:59.867Z,165.50
2023-02-22T06:05:27.821Z,166.00
2023-02-22T06:07:55.949Z,183.02
2023-02-22T06:10:23.408Z,177.02
2023-02-22T06:12:51.789Z,180.95
2023-02-22T06:15:20.300Z,177.15
2023-02-22T06:17:47.955Z,169.30
2023-02-22T06:20:18.381Z,168.85
2023-02-22T06:22:48.001Z,186.10
2023-02-22T06:25:19.024Z,184.35
2023-02-22T06:27:46.508Z,164.13
2023-02-22T06:30:15.337Z,175.70
2023-02-22T06:32:42.706Z,161.48
2023-02-22T06:35:10.100Z,174.70
2023-02-22T06:37:38.616Z,164.02
2023-02-22T06:40:06.460Z,165.98
2023-02-22T06:42:33.891Z,174.90
2023-02-22T06:45:01.244Z,167.93
2023-02-22T06:47:28.688Z,169.50
2023-02-22T06:49:57.445Z,177.43
2023-02-22T06:52:25.193Z,178.95
2023-02-22T06:54:52.919Z,171.70
2023-02-22T06:57:20.310Z,164.38
2023-02-22T06:59:47.670Z,180.05
2023-02-22T07:02:15.240Z,194.40
2023-02-22T07:04:43.646Z,187.38
2023-02-22T07:07:11.102Z,187.15
2023-02-22T07:09:38.464Z,170.40
2023-02-22T07:12:06.263Z,162.57
2023-02-22T07:14:33.543Z,184.13
2023-02-22T07:17:00.788Z,173.15
2023-02-22T07:19:28.117Z,181.13
2023-02-22T07:21:59.354Z,172.93
2023-02-22T07:24:28.557Z,177.23
2023-02-22T07:26:56.028Z,176.93
2023-02-22T07:29:23.872Z,168.13
2023-02-22T07:31:51.400Z,175.13
2023-02-22T07:34:18.992Z,178.77
2023-02-22T07:36:46.326Z,195.40
2023-02-22T07:39:13.719Z,166.05
2023-02-22T07:41:41.090Z,174.90
2023-02-22T07:44:22.135Z,144.85
2023-02-22T07:46:50.434Z,153.77
2023-02-22T07:49:17.925Z,177.90
2023-02-22T07:51:45.315Z,166.95
2023-02-22T07:54:12.624Z,173.80
2023-02-22T07:56:45.812Z,175.93
2023-02-22T07:59:13.445Z,176.45
2023-02-22T08:01:40.815Z,187.82
2023-02-22T08:04:08.805Z,180.70
2023-02-22T08:06:36.172Z,187.25
2023-02-22T08:09:03.487Z,170.88
2023-02-22T08:11:30.815Z,188.75
2023-02-22T08:13:58.118Z,166.90
2023-02-22T08:16:25.450Z,186.18
2023-02-22T08:18:52.829Z,171.00
2023-02-22T08:21:20.164Z,189.48
2023-02-22T08:23:52.446Z,174.40
2023-02-22T08:26:20.853Z,177.43
2023-02-22T08:28:49.083Z,186.85
2023-02-22T08:31:16.821Z,177.65
2023-02-22T08:33:48.929Z,186.10
2023-02-22T08:38:43.457Z,180.13
2023-02-22T08:41:10.739Z,186.75
2023-02-22T08:43:38.187Z,198.82
2023-02-22T08:46:05.573Z,180.75
2023-02-22T08:48:32.999Z,168.82
2023-02-22T08:51:00.475Z,187.68
2023-02-22T08:53:27.734Z,186.45
2023-02-22T08:55:55.043Z,166.90
2023-02-22T08:58:22.394Z,182.68
2023-02-22T09:00:49.884Z,192.63
2023-02-22T09:03:17.272Z,180.20
2023-02-22T09:05:45.334Z,183.90
2023-02-22T09:08:12.900Z,175.00
2023-02-22T09:10:40.750Z,177.13
2023-02-22T09:13:08.206Z,171.38
2023-02-22T09:15:36.276Z,174.38
2023-02-22T09:18:05.151Z,183.77
2023-02-22T09:20:32.485Z,173.75
2023-02-22T09:22:59.927Z,181.98
2023-02-22T09:25:27.300Z,176.00
2023-02-22T09:27:55.966Z,164.95
2023-02-22T09:30:27.741Z,165.57
2023-02-22T09:35:29.874Z,156.60
2023-02-22T09:37:59.233Z,160.90
2023-02-22T09:40:30.578Z,174.95
2023-02-22T09:43:31.152Z,154.70
2023-02-22T09:46:02.716Z,162.73
2023-02-22T09:48:34.036Z,160.90
2023-02-22T09:51:07.063Z,160.40
2023-02-22T09:53:44.395Z,157.02
2023-02-22T09:56:14.943Z,164.40
2023-02-22T09:58:46.337Z,155.65
2023-02-22T10:01:35.836Z,140.90
2023-02-22T10:04:30.496Z,143.52
2023-02-22T10:07:18.448Z,141.98
2023-02-22T10:09:48.818Z,141.63
2023-02-22T10:12:56.802Z,157.02
2023-02-22T10:15:37.208Z,134.18
2023-02-22T10:18:10.790Z,139.02
2023-02-22T10:21:17.556Z,141.57
2023-02-22T10:23:53.824Z,130.02
2023-02-22T10:26:25.436Z,122.80
2023-02-22T10:29:18.755Z,138.57
2023-02-22T10:31:51.048Z,135.80
2023-02-22T10:34:24.843Z,140.68
2023-02-22T10:37:16.547Z,146.13
2023-02-22T10:39:45.643Z,126.40
2023-02-22T10:42:12.972Z,128.13
2023-02-22T10:44:41.119Z,129.48
2023-02-22T10:47:20.015Z,119.65
2023-02-22T10:49:53.833Z,120.30
2023-02-22T10:52:28.364Z,135.35
2023-02-22T10:55:13.556Z,149.40
2023-02-22T10:57:46.293Z,135.90
2023-02-22T11:00:29.664Z,147.60
2023-02-22T11:03:02.249Z,150.40
2023-02-22T11:05:33.045Z,147.07
2023-02-22T11:08:23.809Z,146.27
2023-02-22T11:10:53.659Z,149.45
2023-02-22T11:13:33.720Z,139.35
2023-02-22T11:16:17.200Z,141.48
2023-02-22T11:18:45.646Z,134.25
2023-02-22T11:21:16.677Z,149.00
2023-02-22T11:23:45.024Z,155.23
2023-02-22T11:26:16.574Z,130.00
2023-02-22T11:28:50.690Z,123.97
2023-02-22T11:31:22.616Z,136.70
2023-02-22T11:36:41.679Z,135.00
2023-02-22T11:39:26.830Z,126.85
2023-02-22T11:41:56.362Z,141.35
2023-02-22T11:44:32.953Z,141.57
2023-02-22T11:47:07.109Z,138.35
2023-02-22T11:49:38.204Z,137.52
2023-02-22T11:52:42.435Z,145.77
2023-02-22T11:55:42.130Z,136.90
2023-02-22T11:58:34.875Z,154.55
2023-02-22T12:01:11.973Z,148.45
2023-02-22T12:04:16.923Z,155.98
2023-02-22T12:07:15.511Z,158.73
2023-02-22T12:10:05.690Z,164.73
2023-02-22T12:12:43.219Z,142.30
2023-02-22T12:15:34.809Z,148.82
2023-02-22T12:18:40.510Z,156.05
2023-02-22T12:21:16.900Z,160.68
2023-02-22T12:23:57.967Z,143.45
2023-02-22T12:26:38.813Z,149.48
2023-02-22T12:29:23.321Z,148.80
2023-02-22T12:31:57.593Z,151.35
2023-02-22T12:35:05.617Z,159.63
2023-02-22T12:37:36.821Z,151.55
2023-02-22T12:40:16.247Z,153.32
2023-02-22T12:43:20.728Z,158.48
2023-02-22T12:46:06.992Z,170.25
2023-02-22T12:49:02.113Z,163.88
2023-02-22T12:51:41.269Z,150.15
2023-02-22T12:54:14.538Z,150.50
2023-02-22T12:56:50.669Z,152.38
2023-02-22T12:59:21.858Z,154.23
2023-02-22T13:01:58.413Z,152.35
2023-02-22T13:04:25.888Z,158.48
2023-02-22T13:06:58.842Z,164.05
2023-02-22T13:09:48.037Z,156.02
2023-02-22T13:12:36.030Z,160.50
2023-02-22T13:15:17.636Z,158.70
2023-02-22T13:17:51.782Z,163.43
2023-02-22T13:20:29.230Z,148.95
2023-02-22T13:23:02.920Z,138.55
2023-02-22T13:25:48.736Z,148.00
2023-02-22T13:28:46.569Z,154.35
2023-02-22T13:31:22.213Z,160.52
2023-02-22T13:34:16.521Z,146.02
2023-02-22T13:37:08.548Z,145.70
2023-02-22T13:39:54.733Z,153.27
2023-02-22T13:42:33.732Z,153.27
2023-02-22T13:45:22.403Z,152.05
2023-02-22T13:48:11.283Z,147.40
2023-02-22T13:51:02.808Z,144.00
2023-02-22T13:53:39.768Z,148.50
2023-02-22T13:56:07.284Z,140.75
2023-02-22T13:58:51.944Z,164.57
2023-02-22T14:01:43.192Z,150.50
2023-02-22T14:04:28.751Z,151.10
2023-02-22T14:07:03.154Z,145.63
2023-02-22T14:09:48.524Z,157.98
2023-02-22T14:12:30.954Z,160.07
2023-02-22T14:15:26.753Z,158.45
2023-02-22T14:18:01.322Z,144.85
2023-02-22T14:20:40.305Z,153.23
2023-02-22T14:23:27.642Z,140.73
2023-02-22T14:25:56.873Z,139.63
2023-02-22T14:28:54.359Z,144.20
2023-02-22T14:31:35.975Z,140.23
2023-02-22T14:34:11.720Z,148.57
2023-02-22T14:36:53.776Z,153.60
2023-02-22T14:42:27.347Z,149.23
2023-02-22T14:45:04.986Z,141.77
2023-02-22T14:47:49.658Z,147.68
2023-02-22T14:50:30.094Z,143.82
2023-02-22T14:53:12.620Z,142.50
2023-02-22T14:56:14.312Z,142.70
2023-02-22T14:58:46.937Z,150.15
2023-02-22T15:01:20.138Z,137.07
2023-02-22T15:03:51.436Z,145.82
2023-02-22T15:06:29.144Z,133.68
2023-02-22T15:09:27.020Z,145.48
2023-02-22T15:12:05.216Z,143.40
2023-02-22T15:14:47.706Z,140.23
2023-02-22T15:17:24.962Z,138.88
2023-02-22T15:19:53.414Z,151.10
2023-02-22T15:22:24.041Z,131.98
2023-02-22T15:27:47.855Z,155.65
2023-02-22T15:30:33.006Z,148.93
2023-02-22T15:33:17.621Z,146.15
2023-02-22T15:35:45.186Z,145.40
2023-02-22T15:38:12.526Z,154.98
2023-02-22T15:40:43.248Z,156.75
2023-02-22T15:43:38.499Z,142.80
2023-02-22T15:46:06.923Z,152.05
2023-02-22T15:48:37.199Z,147.63
2023-02-22T15:51:11.723Z,158.52
2023-02-22T15:53:47.376Z,142.32
2023-02-22T15:56:24.531Z,145.05
2023-02-22T15:58:58.804Z,132.27
2023-02-22T16:01:27.274Z,141.05
2023-02-22T16:03:57.296Z,137.38
2023-02-22T16:06:36.782Z,150.52
2023-02-22T16:09:25.332Z,133.20
2023-02-22T16:12:11.816Z,152.60
2023-02-22T16:14:40.678Z,145.00
2023-02-22T16:17:35.754Z,135.85
2023-02-22T16:20:12.324Z,139.70
2023-02-22T16:22:46.558Z,103.47
2023-02-22T16:25:18.844Z,117.20
2023-02-22T16:27:50.111Z,109.80
2023-02-22T16:30:28.513Z,114.55
2023-02-22T16:32:57.232Z,102.68
2023-02-22T16:35:29.208Z,111.80
2023-02-22T16:38:03.273Z,107.53
2023-02-22T16:40:34.485Z,121.72
2023-02-22T16:43:08.147Z,117.10
2023-02-22T16:45:36.153Z,117.30
2023-02-22T16:48:19.049Z,110.70
2023-02-22T16:50:47.630Z,132.85
2023-02-22T16:53:20.055Z,127.80
2023-02-22T16:55:48.651Z,133.90
2023-02-22T16:58:19.056Z,133.32
2023-02-22T17:00:46.424Z,119.80
2023-02-22T17:03:18.521Z,134.88
2023-02-22T17:05:45.992Z,123.93
2023-02-22T17:08:13.412Z,124.20
2023-02-22T17:10:40.762Z,132.85
2023-02-22T17:13:21.855Z,120.35
2023-02-22T17:15:50.674Z,132.23
2023-02-22T17:18:22.989Z,129.20
2023-02-22T17:20:52.178Z,132.35
2023-02-22T17:23:20.011Z,125.60
2023-02-22T17:25:55.610Z,141.45
2023-02-22T17:28:24.683Z,129.77
2023-02-22T17:30:53.546Z,147.95
2023-02-22T17:33:26.628Z,134.07
2023-02-22T17:35:55.732Z,130.60
2023-02-22T17:38:23.555Z,139.90
2023-02-22T17:40:54.819Z,138.93
2023-02-22T17:43:23.888Z,147.23
2023-02-22T17:45:51.396Z,145.98
2023-02-22T17:48:19.086Z,145.68
2023-02-22T17:50:47.904Z,143.68
2023-02-22T17:53:16.075Z,144.40
2023-02-22T17:55:43.953Z,146.80
2023-02-22T17:58:14.781Z,136.98
2023-02-22T18:00:45.940Z,128.73
2023-02-22T18:03:16.417Z,149.77
2023-02-22T18:05:47.124Z,149.38
2023-02-22T18:08:15.639Z,145.30
2023-02-22T18:10:43.813Z,137.60
2023-02-22T18:13:18.685Z,145.55
2023-02-22T18:15:47.006Z,150.35
2023-02-22T18:18:16.219Z,152.63
2023-02-22T18:20:46.455Z,147.27
2023-02-22T18:23:22.242Z,147.95
2023-02-22T18:26:07.730Z,145.05
2023-02-22T18:28:37.564Z,171.50
2023-02-22T18:31:15.982Z,152.95
2023-02-22T18:33:48.452Z,142.00
2023-02-22T18:36:16.858Z,146.45
2023-02-22T18:38:44.709Z,165.63
2023-02-22T18:41:17.400Z,159.75
2023-02-22T18:43:46.510Z,159.00
2023-02-22T18:46:18.274Z,153.27
2023-02-22T18:48:48.051Z,159.88
2023-02-22T18:51:17.391Z,156.80
2023-02-22T18:53:47.568Z,158.18
2023-02-22T18:56:21.868Z,166.20
2023-02-22T18:58:58.610Z,163.65
2023-02-22T19:01:26.866Z,159.13
2023-02-22T19:03:55.494Z,152.60
2023-02-22T19:06:22.942Z,151.40
2023-02-22T19:08:51.147Z,166.60
2023-02-22T19:11:23.889Z,153.20
2023-02-22T19:13:54.054Z,165.38
2023-02-22T19:16:24.497Z,161.23
2023-02-22T19:18:57.189Z,174.52
2023-02-22T19:21:25.989Z,159.73
2023-02-22T19:24:01.012Z,153.38
2023-02-22T19:26:29.363Z,153.90
2023-02-22T19:28:58.686Z,162.02
2023-02-22T19:31:31.318Z,153.45
2023-02-22T19:34:11.112Z,154.32
2023-02-22T19:36:40.135Z,162.38
2023-02-22T19:39:08.464Z,160.68
2023-02-22T19:41:35.964Z,179.32
2023-02-22T19:44:03.929Z,167.93
2023-02-22T19:46:31.987Z,171.75
2023-02-22T19:49:00.639Z,170.80
2023-02-22T19:51:29.491Z,167.98
2023-02-22T19:54:02.757Z,119.50
2023-02-22T19:56:31.288Z,142.30
2023-02-22T19:59:01.577Z,157.32
2023-02-22T20:01:31.902Z,143.85
2023-02-22T20:04:01.984Z,166.80
2023-02-22T20:06:34.719Z,148.85
2023-02-22T20:09:03.455Z,156.70
2023-02-22T20:11:30.887Z,165.32
2023-02-22T20:13:58.420Z,172.85
2023-02-22T20:16:25.954Z,159.45
2023-02-22T20:18:54.831Z,167.95
2023-02-22T20:21:30.904Z,161.88
2023-02-22T20:23:59.838Z,186.90
2023-02-22T20:26:29.303Z,158.93
2023-02-22T20:28:58.856Z,166.88
2023-02-22T20:31:26.699Z,167.30
2023-02-22T20:33:57.352Z,152.27
2023-02-22T20:36:25.922Z,170.07
2023-02-22T20:38:55.381Z,165.93
2023-02-22T20:41:32.248Z,161.82
2023-02-22T20:44:02.767Z,171.95
2023-02-22T20:46:38.591Z,167.98
2023-02-22T20:49:08.386Z,173.55
2023-02-22T20:51:38.180Z,167.98
2023-02-22T20:54:08.520Z,168.85
2023-02-22T20:56:35.875Z,173.07
2023-02-22T20:59:04.746Z,169.77
2023-02-22T21:01:32.540Z,180.75
2023-02-22T21:04:05.936Z,169.60
2023-02-22T21:06:35.620Z,174.25
2023-02-22T21:09:08.532Z,166.98
2023-02-22T21:11:36.334Z,167.15
2023-02-22T21:14:04.373Z,166.90
2023-02-22T21:16:35.644Z,168.98
2023-02-22T21:19:06.195Z,181.75
2023-02-22T21:21:35.630Z,163.50
2023-02-22T21:24:03.188Z,162.43
2023-02-22T21:26:33.407Z,184.15
2023-02-22T21:29:04.874Z,170.30
2023-02-22T21:31:34.054Z,178.68
2023-02-22T21:34:02.108Z,165.52
2023-02-22T21:36:30.258Z,153.75
2023-02-22T21:39:00.528Z,165.82
2023-02-22T21:41:30.256Z,164.68
2023-02-22T21:43:59.252Z,160.32
2023-02-22T21:46:29.218Z,176.55
2023-02-22T21:48:58.571Z,151.93
2023-02-22T21:51:34.657Z,164.27
2023-02-22T21:54:05.404Z,167.70
2023-02-22T21:56:36.388Z,168.05
2023-02-22T21:59:13.641Z,159.43
2023-02-22T22:01:47.216Z,158.88
2023-02-22T22:04:22.759Z,176.73
2023-02-22T22:06:52.534Z,184.18
2023-02-22T22:09:21.921Z,160.40
2023-02-22T22:12:05.297Z,158.10
2023-02-22T22:14:34.669Z,169.20
2023-02-22T22:17:05.542Z,166.40
2023-02-22T22:19:39.266Z,161.50
2023-02-22T22:22:07.880Z,165.15
2023-02-22T22:24:35.401Z,146.88
2023-02-22T22:27:06.571Z,168.98
2023-02-22T22:29:34.481Z,161.48
2023-02-22T22:32:02.773Z,162.25
2023-02-22T22:34:30.754Z,167.20
2023-02-22T22:36:58.219Z,169.27
2023-02-22T22:39:26.872Z,185.70
2023-02-22T22:41:54.707Z,167.63
2023-02-22T22:44:22.515Z,162.18
2023-02-22T22:46:53.754Z,168.52
2023-02-22T22:49:23.381Z,156.48
2023-02-22T22:51:51.177Z,158.68
2023-02-22T22:54:19.757Z,162.52
2023-02-22T22:56:47.102Z,176.88
2023-02-22T22:59:15.284Z,167.75
2023-02-22T23:01:46.564Z,158.93
2023-02-22T23:04:18.623Z,160.90
2023-02-22T23:06:49.903Z,160.20
2023-02-22T23:09:21.682Z,168.35
2023-02-22T23:14:21.448Z,151.35
2023-02-22T23:16:55.212Z,161.15
2023-02-22T23:19:22.837Z,163.43
2023-02-22T23:21:50.666Z,190.05
2023-02-22T23:24:20.744Z,170.80
2023-02-22T23:26:51.100Z,154.82
2023-02-22T23:29:20.611Z,166.05
2023-02-22T23:31:49.600Z,152.27
2023-02-22T23:34:17.908Z,170.38
2023-02-22T23:36:45.259Z,156.18
2023-02-22T23:39:15.772Z,152.88
2023-02-22T23:41:43.244Z,165.88
2023-02-22T23:44:13.973Z,169.63
2023-02-22T23:46:41.321Z,164.52
2023-02-22T23:49:09.947Z,163.85
2023-02-22T23:51:44.613Z,177.82
2023-02-22T23:54:15.007Z,152.85
2023-02-22T23:56:53.586Z,167.77
2023-02-22T23:59:20.926Z,169.25
